Time;durP1;ratioP1;P1;durP2;ratioP2;P2;SDS_P1;SDS_P2;PMS_P1;PMS_P2;Temp;Humidity;BMP_temperature;BMP_pressure;BME280_temperature;BME280_humidity;BME280_pressure;Samples;Min_cycle;Max_cycle;Signal;HPM_P1;HPM_P2
2022/06/24 00:02:08;;;;;;;;;10.00;6.00;;;;;22.58;69.77;98802.94;4825287;29;45388;-49
2022/06/24 00:04:33;;;;;;;;;12.00;7.00;;;;;22.60;69.74;98798.28;4824376;29;45440;-51
2022/06/24 00:06:59;;;;;;;;;11.00;7.75;;;;;22.63;69.44;98801.50;4824715;29;46127;-52
2022/06/24 00:09:29;;;;;;;;;6.50;5.00;;;;;22.64;69.43;98808.56;4824807;29;45371;-51
2022/06/24 00:12:12;;;;;;;;;8.80;6.20;;;;;22.65;69.06;98809.41;4824229;29;45395;-51
2022/06/24 00:14:39;;;;;;;;;6.00;5.00;;;;;22.65;69.19;98809.41;4825214;29;45491;-50
2022/06/24 00:17:07;;;;;;;;;11.50;8.00;;;;;22.67;69.05;98795.84;4824505;29;45430;-50
2022/06/24 00:19:52;;;;;;;;;9.60;7.80;;;;;22.68;69.08;98803.75;4824394;29;45489;-49
2022/06/24 00:22:18;;;;;;;;;6.25;6.00;;;;;22.68;69.27;98789.47;4824112;29;45491;-50
2022/06/24 00:24:43;;;;;;;;;5.75;5.75;;;;;22.68;68.91;98795.69;4824858;29;45549;-51
2022/06/24 00:27:22;;;;;;;;;6.50;6.00;;;;;22.71;69.34;98794.56;4824079;29;46201;-48
2022/06/24 00:29:48;;;;;;;;;6.80;5.40;;;;;22.72;68.80;98797.09;4818560;29;45468;-52
2022/06/24 00:32:14;;;;;;;;;8.00;5.75;;;;;22.75;69.06;98806.72;4824743;29;45595;-51
2022/06/24 00:34:40;;;;;;;;;8.25;7.00;;;;;22.72;69.38;98797.09;4823832;29;45595;-52
2022/06/24 00:37:26;;;;;;;;;10.20;6.40;;;;;22.71;69.24;98795.41;4823980;29;47384;-51
2022/06/24 00:39:54;;;;;;;;;7.40;6.80;;;;;22.71;69.77;98806.16;4820522;29;45376;-52
2022/06/24 00:42:22;;;;;;;;;7.25;6.50;;;;;22.72;69.33;98807.00;4824247;29;45574;-49
2022/06/24 00:45:15;;;;;;;;;7.25;6.75;;;;;22.72;69.56;98799.78;4825083;29;45530;-50
2022/06/24 00:47:42;;;;;;;;;7.00;5.80;;;;;22.70;69.63;98798.25;4816854;29;46480;-51
2022/06/24 00:50:19;;;;;;;;;6.80;6.00;;;;;22.68;69.93;98805.59;4824421;29;45507;-53
2022/06/24 00:52:46;;;;;;;;;10.00;6.50;;;;;22.68;69.89;98802.91;4824653;29;45459;-52
2022/06/24 00:55:20;;;;;;;;;7.50;7.00;;;;;22.69;69.74;98802.75;4824418;29;45377;-50
2022/06/24 00:57:45;;;;;;;;;7.00;6.00;;;;;22.67;69.87;98794.00;4823464;29;46307;-50
2022/06/24 01:00:14;;;;;;;;;11.50;8.00;;;;;22.66;69.63;98794.13;4824180;29;45441;-51
2022/06/24 01:02:42;;;;;;;;;5.00;4.60;;;;;22.64;69.86;98783.53;4823935;29;45530;-49
2022/06/24 01:05:09;;;;;;;;;7.50;6.50;;;;;22.63;70.25;98781.84;4821582;29;45286;-52
2022/06/24 01:07:41;;;;;;;;;5.00;5.00;;;;;22.65;70.27;98782.53;4824168;29;45514;-50
2022/06/24 01:10:09;;;;;;;;;8.60;6.40;;;;;22.68;70.22;98770.66;4824519;29;45328;-50
2022/06/24 01:12:36;;;;;;;;;6.50;5.25;;;;;22.68;70.28;98763.44;4823719;29;45450;-50
2022/06/24 01:15:05;;;;;;;;;6.50;5.00;;;;;22.69;70.38;98770.50;4824213;29;45465;-51
2022/06/24 01:17:30;;;;;;;;;7.25;5.25;;;;;22.68;70.44;98779.56;4822399;29;45807;-51
2022/06/24 01:19:56;;;;;;;;;9.50;7.00;;;;;22.66;70.36;98776.19;4824257;29;45484;-52
2022/06/24 01:22:23;;;;;;;;;8.00;6.00;;;;;22.67;69.99;98775.19;4823427;29;45513;-48
2022/06/24 01:24:49;;;;;;;;;7.00;6.00;;;;;22.70;69.85;98777.59;4824310;29;45373;-50
2022/06/24 01:27:15;;;;;;;;;7.75;5.25;;;;;22.72;69.93;98772.06;4822888;29;45634;-50
2022/06/24 01:29:41;;;;;;;;;7.00;6.40;;;;;22.72;69.63;98772.06;4824131;29;45691;-51
2022/06/24 01:32:07;;;;;;;;;7.75;5.50;;;;;22.73;69.79;98774.59;4823428;29;45588;-53
2022/06/24 01:34:32;;;;;;;;;8.75;6.00;;;;;22.74;69.63;98773.63;4823246;29;45375;-50
2022/06/24 01:36:58;;;;;;;;;10.25;7.75;;;;;22.73;69.44;98765.69;4823287;29;46151;-49
2022/06/24 01:39:23;;;;;;;;;8.00;6.25;;;;;22.74;69.78;98751.28;4807222;29;45340;-52
2022/06/24 01:41:50;;;;;;;;;8.50;6.00;;;;;22.76;69.36;98752.81;4823445;29;45580;-50
2022/06/24 01:44:16;;;;;;;;;7.50;6.25;;;;;22.78;69.85;98747.34;4824255;29;45729;-50
2022/06/24 01:46:42;;;;;;;;;10.50;8.00;;;;;22.79;69.22;98740.97;4806126;29;47345;-51
2022/06/24 01:49:08;;;;;;;;;7.50;7.25;;;;;22.80;69.34;98742.63;4823342;29;45524;-52
2022/06/24 01:51:36;;;;;;;;;9.00;7.25;;;;;22.80;69.66;98731.88;4806539;29;45598;-53
2022/06/24 01:54:02;;;;;;;;;7.25;6.50;;;;;22.78;69.53;98736.59;4823329;29;45393;-52
2022/06/24 01:56:28;;;;;;;;;7.25;5.50;;;;;22.76;69.55;98735.84;4823080;29;45719;-50
2022/06/24 01:58:53;;;;;;;;;7.00;6.00;;;;;22.76;69.23;98733.16;4823616;29;45501;-52
2022/06/24 02:01:19;;;;;;;;;6.00;6.00;;;;;22.71;69.59;98725.53;4823444;29;45430;-52
2022/06/24 02:03:45;;;;;;;;;8.75;6.75;;;;;22.66;69.69;98717.06;4822470;29;45467;-52
2022/06/24 02:06:12;;;;;;;;;6.75;6.75;;;;;22.58;69.44;98708.91;4823354;29;46637;-51
2022/06/24 02:08:38;;;;;;;;;6.00;5.00;;;;;22.49;70.05;98710.59;4822599;29;45583;-51
2022/06/24 02:13:49;;;;;;;;;7.00;6.75;;;;;22.39;69.78;98719.69;4822491;29;45496;-50
2022/06/24 02:16:16;;;;;;;;;6.00;5.50;;;;;22.30;70.06;98721.41;4822843;29;45607;-52
2022/06/24 02:18:42;;;;;;;;;0.60;0.40;;;;;22.23;70.60;98731.91;4820776;29;45659;-52
2022/06/24 02:21:07;;;;;;;;;9.25;6.75;;;;;22.18;71.04;98733.31;4806280;29;45374;-51
2022/06/24 02:23:33;;;;;;;;;7.00;5.00;;;;;22.14;71.75;98727.38;4820775;29;45502;-50
2022/06/24 02:25:59;;;;;;;;;7.00;6.00;;;;;22.11;71.80;98729.53;4823104;29;45458;-53
2022/06/24 02:28:25;;;;;;;;;7.25;6.50;;;;;22.09;72.09;98732.34;4824015;29;45471;-52
2022/06/24 02:30:58;;;;;;;;;7.00;6.00;;;;;22.07;72.58;98722.75;4826853;29;45393;-52
2022/06/24 02:33:24;;;;;;;;;5.00;5.00;;;;;22.04;72.21;98731.06;4825636;29;45466;-51
2022/06/24 02:35:50;;;;;;;;;8.25;8.00;;;;;22.04;72.62;98715.81;4824787;29;46456;-51
2022/06/24 02:38:16;;;;;;;;;6.75;5.75;;;;;22.03;72.82;98710.59;4825888;29;45490;-51
2022/06/24 02:40:47;;;;;;;;;6.50;6.50;;;;;21.99;72.81;98701.09;4826058;29;45393;-52
2022/06/24 02:43:18;;;;;;;;;6.00;6.00;;;;;21.97;73.20;98700.38;4825657;29;45304;-52
2022/06/24 02:45:45;;;;;;;;;8.75;7.25;;;;;22.00;72.64;98694.75;4826252;29;45991;-51
2022/06/24 02:48:12;;;;;;;;;7.60;7.40;;;;;22.02;72.55;98701.69;4825936;29;45360;-53
2022/06/24 02:50:42;;;;;;;;;6.40;6.00;;;;;22.05;72.67;98704.09;4826653;29;45156;-51
2022/06/24 02:53:08;;;;;;;;;9.50;8.25;;;;;22.06;72.15;98697.72;4825593;29;45413;-51
2022/06/24 02:55:34;;;;;;;;;7.80;5.00;;;;;22.05;72.92;98709.47;4825775;29;45469;-51
2022/06/24 02:58:00;;;;;;;;;9.50;8.50;;;;;22.06;72.91;98702.25;4825755;29;45386;-51
2022/06/24 03:00:25;;;;;;;;;6.75;6.75;;;;;22.08;72.50;98708.34;4826283;29;45408;-49
2022/06/24 03:02:51;;;;;;;;;9.25;8.25;;;;;22.06;72.45;98694.19;4825913;29;45523;-49
2022/06/24 03:05:16;;;;;;;;;10.00;6.50;;;;;22.01;72.70;98691.09;4819984;29;46587;-51
2022/06/24 03:07:42;;;;;;;;;10.25;8.25;;;;;22.01;72.82;98691.09;4825664;29;45437;-53
2022/06/24 03:10:07;;;;;;;;;8.25;5.00;;;;;22.02;72.63;98688.25;4825311;29;45559;-49
2022/06/24 03:12:33;;;;;;;;;6.50;6.00;;;;;22.03;72.88;98687.28;4825138;29;45364;-53
2022/06/24 03:14:58;;;;;;;;;7.50;6.25;;;;;22.06;73.29;98692.38;4826083;29;46075;-49
2022/06/24 03:17:24;;;;;;;;;2.25;1.00;;;;;22.06;72.74;98689.69;4825489;29;45523;-53
2022/06/24 03:19:49;;;;;;;;;6.25;6.00;;;;;22.04;72.71;98690.81;4826353;29;45944;-49
2022/06/24 03:22:14;;;;;;;;;8.50;6.75;;;;;22.04;72.90;98699.72;4825556;29;45417;-52
2022/06/24 03:24:40;;;;;;;;;8.50;6.50;;;;;22.05;73.34;98709.47;4825654;29;45464;-53
2022/06/24 03:27:06;;;;;;;;;6.50;5.75;;;;;22.07;73.65;98701.25;4825524;29;45435;-51
2022/06/24 03:29:32;;;;;;;;;7.00;6.00;;;;;22.09;73.81;98704.66;4825785;29;45523;-52
2022/06/24 03:31:57;;;;;;;;;10.50;7.00;;;;;22.08;73.55;98695.75;4825388;29;45541;-51
2022/06/24 03:34:22;;;;;;;;;8.50;8.00;;;;;22.10;73.51;98703.66;4824447;29;46202;-51
2022/06/24 03:36:49;;;;;;;;;10.00;10.00;;;;;22.09;73.90;98710.03;4825443;29;45528;-52
2022/06/24 03:39:14;;;;;;;;;11.25;7.00;;;;;22.07;73.82;98717.38;4821877;29;45442;-49
2022/06/24 03:41:40;;;;;;;;;9.00;7.00;;;;;22.02;73.78;98723.16;4824582;29;45439;-51
2022/06/24 03:44:05;;;;;;;;;9.75;7.25;;;;;22.00;74.59;98722.47;4825670;29;46597;-49
2022/06/24 03:46:30;;;;;;;;;10.00;8.25;;;;;21.99;75.03;98727.94;4825246;29;45279;-50
2022/06/24 03:48:56;;;;;;;;;7.00;6.00;;;;;21.95;74.87;98730.09;4825648;29;45759;-49
2022/06/24 03:51:21;;;;;;;;;6.25;5.75;;;;;21.90;74.69;98719.75;4825172;29;45397;-49
2022/06/24 03:53:46;;;;;;;;;9.00;6.50;;;;;21.88;75.36;98721.75;4825242;29;45797;-51
2022/06/24 03:56:12;;;;;;;;;9.75;6.00;;;;;21.85;75.26;98716.66;4824470;29;45464;-50
2022/06/24 03:58:37;;;;;;;;;8.25;8.00;;;;;21.83;75.32;98718.63;4824276;29;45682;-52
2022/06/24 04:01:03;;;;;;;;;8.00;7.25;;;;;21.78;75.91;98709.31;4825916;29;45396;-53
2022/06/24 04:03:29;;;;;;;;;9.00;8.00;;;;;21.75;76.13;98707.78;4824627;29;45554;-51
2022/06/24 04:05:55;;;;;;;;;7.20;7.00;;;;;21.75;76.59;98704.25;4821590;29;45390;-51
2022/06/24 04:08:20;;;;;;;;;7.25;7.00;;;;;21.75;76.35;98701.56;4824407;29;45603;-51
2022/06/24 04:10:45;;;;;;;;;9.00;7.25;;;;;21.74;76.82;98698.03;4824576;29;45593;-51
2022/06/24 04:13:11;;;;;;;;;9.50;8.50;;;;;21.74;76.93;98703.41;4824228;29;46340;-52
2022/06/24 04:15:46;;;;;;;;;9.50;8.00;;;;;21.74;76.82;98689.13;4825356;29;45360;-52
2022/06/24 04:18:12;;;;;;;;;11.75;9.25;;;;;21.71;76.52;98690.25;4824265;29;45386;-53
2022/06/24 04:20:37;;;;;;;;;8.75;7.25;;;;;21.67;76.80;98691.53;4824893;29;45416;-51
2022/06/24 04:23:02;;;;;;;;;9.75;7.75;;;;;21.65;77.66;98693.50;4823921;29;45465;-49
2022/06/24 04:25:28;;;;;;;;;9.50;7.25;;;;;21.66;77.62;98680.94;4824784;29;45472;-47
2022/06/24 04:27:53;;;;;;;;;14.75;13.00;;;;;21.66;77.64;98663.00;4824579;29;45620;-51
2022/06/24 04:30:19;;;;;;;;;10.25;9.00;;;;;21.67;77.48;98666.53;4824699;29;45380;-52
2022/06/24 04:32:44;;;;;;;;;10.75;10.00;;;;;21.67;77.57;98653.09;4824393;29;45379;-49
2022/06/24 04:35:09;;;;;;;;;9.25;8.75;;;;;21.67;78.26;98653.09;4816763;29;45408;-50
2022/06/24 04:37:37;;;;;;;;;8.50;8.25;;;;;21.68;78.60;98661.00;4824497;29;45413;-49
2022/06/24 04:40:04;;;;;;;;;9.50;7.25;;;;;21.70;77.96;98658.19;4818814;29;45571;-48
2022/06/24 04:42:30;;;;;;;;;10.50;9.00;;;;;21.67;77.79;98645.91;4823788;29;46439;-48
2022/06/24 04:44:55;;;;;;;;;10.50;8.50;;;;;21.69;78.23;98640.41;4824645;29;45409;-51
2022/06/24 04:47:21;;;;;;;;;12.25;9.50;;;;;21.71;77.95;98633.06;4824633;29;45427;-48
2022/06/24 04:49:46;;;;;;;;;12.25;9.25;;;;;21.70;78.13;98637.56;4824731;29;45496;-48
2022/06/24 04:52:12;;;;;;;;;13.50;10.25;;;;;21.70;77.89;98639.41;4821799;29;45610;-49
2022/06/24 04:54:37;;;;;;;;;10.25;8.50;;;;;21.70;78.54;98642.94;4824373;29;45607;-50
2022/06/24 04:57:03;;;;;;;;;8.50;7.75;;;;;21.71;78.31;98638.44;4823933;29;45446;-51
2022/06/24 04:59:28;;;;;;;;;8.50;7.50;;;;;21.70;77.26;98645.63;4824046;29;45403;-51
2022/06/24 05:01:54;;;;;;;;;11.75;9.00;;;;;21.69;77.88;98651.97;4823842;29;47135;-49
2022/06/24 05:04:19;;;;;;;;;11.75;11.75;;;;;21.69;78.06;98651.97;4822787;29;45333;-51
2022/06/24 05:06:44;;;;;;;;;10.50;8.25;;;;;21.71;77.53;98654.53;4811886;29;45422;-51
2022/06/24 05:09:10;;;;;;;;;10.75;8.25;;;;;21.69;77.41;98646.63;4824451;29;45593;-47
2022/06/24 05:11:35;;;;;;;;;10.75;8.75;;;;;21.68;77.96;98644.91;4822960;29;45419;-52
2022/06/24 05:14:01;;;;;;;;;8.25;6.75;;;;;21.61;77.94;98651.00;4823562;29;45641;-52
2022/06/24 05:16:26;;;;;;;;;8.75;7.00;;;;;21.53;78.24;98655.25;4823537;29;45564;-51
2022/06/24 05:18:52;;;;;;;;;13.50;9.25;;;;;21.51;78.20;98646.47;4823692;29;45451;-51
2022/06/24 05:21:17;;;;;;;;;12.00;8.25;;;;;21.55;78.65;98649.75;4823917;29;46335;-47
2022/06/24 05:23:42;;;;;;;;;10.25;9.00;;;;;21.59;79.17;98638.59;4823384;29;45465;-51
2022/06/24 05:26:08;;;;;;;;;11.00;9.50;;;;;21.61;78.43;98641.13;4824012;29;45387;-49
2022/06/24 05:28:35;;;;;;;;;10.00;10.00;;;;;21.63;79.14;98633.75;4804478;29;45570;-48
2022/06/24 05:31:01;;;;;;;;;9.50;8.50;;;;;21.67;79.39;98642.38;4823729;29;45517;-50
2022/06/24 05:33:26;;;;;;;;;9.00;9.00;;;;;21.70;79.12;98636.72;4822647;29;45702;-52
2022/06/24 05:35:54;;;;;;;;;12.75;9.50;;;;;21.76;78.71;98623.59;4810723;29;45481;-51
2022/06/24 05:38:21;;;;;;;;;12.75;9.25;;;;;21.80;78.73;98630.34;4820021;29;45599;-48
2022/06/24 05:40:48;;;;;;;;;17.50;17.50;;;;;21.84;79.83;98629.06;4822683;29;47224;-52
2022/06/24 05:43:14;;;;;;;;;10.60;8.00;;;;;21.90;80.10;98633.88;4822744;29;45613;-49
2022/06/24 05:45:40;;;;;;;;;12.50;9.25;;;;;21.97;79.52;98634.13;4817254;29;45482;-52
2022/06/24 05:48:05;;;;;;;;;10.00;8.50;;;;;21.99;79.06;98633.97;4820577;29;45525;-51
2022/06/24 05:50:31;;;;;;;;;11.00;9.00;;;;;21.97;77.56;98627.91;4822943;29;46398;-51
2022/06/24 05:55:40;;;;;;;;;7.50;6.00;;;;;21.90;77.75;98633.88;4815564;29;45669;-59
2022/06/24 05:58:05;;;;;;;;;10.00;8.75;;;;;21.83;78.49;98637.25;4816854;29;45481;-59
2022/06/24 06:00:31;;;;;;;;;8.50;8.00;;;;;21.79;79.12;98635.84;4822126;29;46117;-59
2022/06/24 06:02:57;;;;;;;;;9.00;9.00;;;;;21.73;78.71;98637.28;4818324;29;45484;-59
2022/06/24 06:05:22;;;;;;;;;9.00;9.00;;;;;21.71;79.05;98630.38;4816582;29;45722;-59
2022/06/24 06:07:48;;;;;;;;;10.75;9.50;;;;;21.68;78.72;98630.66;4819111;29;45552;-59
2022/06/24 06:10:13;;;;;;;;;7.00;6.25;;;;;21.70;78.59;98631.38;4820517;29;45667;-59
2022/06/24 06:12:38;;;;;;;;;13.00;9.75;;;;;21.70;78.02;98609.91;4819939;29;45556;-59
2022/06/24 06:15:04;;;;;;;;;9.50;7.25;;;;;21.76;78.56;98610.19;4819987;29;45507;-59
2022/06/24 06:17:29;;;;;;;;;9.00;8.25;;;;;21.88;78.12;98610.84;4821182;29;45475;-59
2022/06/24 06:19:55;;;;;;;;;8.25;8.25;;;;;22.00;77.10;98612.41;4822172;29;46424;-59
2022/06/24 06:22:20;;;;;;;;;11.50;9.00;;;;;22.07;76.92;98607.31;4821095;29;45425;-59
2022/06/24 06:24:46;;;;;;;;;6.50;6.50;;;;;22.11;77.05;98606.03;4821743;29;45909;-59
2022/06/24 06:27:12;;;;;;;;;9.00;8.00;;;;;22.12;76.52;98597.78;4819972;29;45552;-59
2022/06/24 06:29:37;;;;;;;;;13.50;11.00;;;;;22.18;76.67;98591.00;4805050;29;48306;-59
2022/06/24 06:32:03;;;;;;;;;14.75;12.00;;;;;22.22;77.21;98595.94;4822309;29;45538;-59
2022/06/24 06:34:29;;;;;;;;;10.75;9.00;;;;;22.27;75.77;98595.50;4791124;29;45424;-59
2022/06/24 06:36:54;;;;;;;;;11.75;11.25;;;;;22.25;75.57;98600.16;4821750;29;45506;-59
2022/06/24 06:39:20;;;;;;;;;9.50;8.25;;;;;22.28;75.70;98602.56;4822697;29;46422;-59
2022/06/24 06:41:46;;;;;;;;;11.00;10.50;;;;;22.41;75.97;98597.69;4821678;29;45422;-59
2022/06/24 06:44:14;;;;;;;;;10.50;8.25;;;;;22.55;74.75;98602.56;4822712;29;45548;-59
2022/06/24 06:46:39;;;;;;;;;8.00;7.75;;;;;22.58;74.41;98604.97;4821978;29;45489;-59
2022/06/24 06:49:04;;;;;;;;;8.00;7.75;;;;;22.65;74.77;98597.13;4822639;29;45419;-59
2022/06/24 06:51:30;;;;;;;;;11.75;10.25;;;;;22.79;74.44;98593.94;4822171;29;45336;-61
2022/06/24 06:53:55;;;;;;;;;10.25;10.25;;;;;22.91;73.86;98586.53;4822974;29;45442;-61
2022/06/24 06:56:21;;;;;;;;;13.50;9.75;;;;;23.00;73.37;98576.69;4822328;29;45390;-61
2022/06/24 06:58:46;;;;;;;;;12.00;11.25;;;;;23.05;73.88;98574.41;4822035;29;46286;-61
2022/06/24 07:01:13;;;;;;;;;11.40;11.00;;;;;23.11;73.56;98571.94;4806424;29;45528;-61
2022/06/24 07:03:38;;;;;;;;;3.00;2.50;;;;;23.19;72.67;98573.84;4822138;29;45407;-61
2022/06/24 07:06:05;;;;;;;;;12.00;10.25;;;;;23.24;73.10;98575.09;4822857;29;45242;-61
2022/06/24 07:08:30;;;;;;;;;11.40;9.60;;;;;23.31;72.66;98578.84;4821778;29;46510;-61
2022/06/24 07:10:56;;;;;;;;;11.50;10.50;;;;;23.39;72.34;98575.38;4822291;29;45615;-61
2022/06/24 07:13:21;;;;;;;;;8.25;8.25;;;;;23.42;71.73;98579.59;4805730;29;45432;-61
2022/06/24 07:15:47;;;;;;;;;10.00;9.50;;;;;23.42;71.84;98564.31;4822305;29;45477;-59
2022/06/24 07:18:12;;;;;;;;;8.75;8.75;;;;;23.42;71.86;98566.16;4824749;29;45483;-59
2022/06/24 07:20:38;;;;;;;;;11.50;11.00;;;;;23.41;72.26;98556.41;4825813;29;45367;-58
2022/06/24 07:23:03;;;;;;;;;17.25;12.75;;;;;23.38;72.91;98554.00;4825523;29;45371;-59
2022/06/24 07:25:32;;;;;;;;;10.25;6.50;;;;;23.34;72.94;98556.16;4825353;29;45463;-59
2022/06/24 07:27:58;;;;;;;;;9.75;9.75;;;;;23.33;73.74;98549.09;4824891;29;46155;-59
2022/06/24 07:30:23;;;;;;;;;13.50;10.75;;;;;23.31;73.83;98551.94;4825605;29;45389;-59
2022/06/24 07:32:48;;;;;;;;;11.25;8.50;;;;;23.27;73.51;98552.44;4825307;29;45899;-61
2022/06/24 07:35:14;;;;;;;;;10.00;9.00;;;;;23.24;73.30;98545.50;4825488;29;45549;-61
2022/06/24 07:37:40;;;;;;;;;8.75;8.75;;;;;23.19;73.39;98545.13;4824530;29;46337;-61
2022/06/24 07:40:06;;;;;;;;;12.25;10.25;;;;;23.15;73.44;98550.94;4821874;29;45291;-61
2022/06/24 07:42:31;;;;;;;;;10.50;10.50;;;;;23.08;72.93;98555.28;4818602;29;45645;-59
2022/06/24 07:44:57;;;;;;;;;11.75;10.75;;;;;23.00;73.28;98569.47;4815701;29;45507;-59
2022/06/24 07:47:22;;;;;;;;;12.25;11.00;;;;;22.90;73.58;98569.56;4819138;29;46161;-59
2022/06/24 07:49:48;;;;;;;;;11.00;10.00;;;;;22.83;73.93;98579.22;4820036;29;45420;-59
2022/06/24 07:52:13;;;;;;;;;10.50;9.50;;;;;22.67;74.51;98581.69;4818153;29;45528;-59
2022/06/24 07:54:39;;;;;;;;;11.50;7.25;;;;;22.53;74.96;98574.16;4801822;29;45499;-59
2022/06/24 07:57:05;;;;;;;;;9.75;9.00;;;;;22.37;75.16;98566.75;4818455;29;46178;-58
2022/06/24 07:59:36;;;;;;;;;11.20;10.00;;;;;22.26;75.63;98565.13;4802049;29;45998;-59
2022/06/24 08:02:04;;;;;;;;;9.00;8.25;;;;;22.19;76.16;98561.31;4819606;29;45424;-59
2022/06/24 08:04:30;;;;;;;;;9.50;9.50;;;;;22.13;76.79;98551.16;4819492;29;45426;-59
2022/06/24 08:06:56;;;;;;;;;11.50;10.00;;;;;22.09;77.13;98557.00;4818456;29;46222;-61
2022/06/24 08:09:25;;;;;;;;;13.20;12.60;;;;;22.09;77.68;98557.00;4799909;29;46091;-62
2022/06/24 08:11:51;;;;;;;;;10.25;10.25;;;;;22.09;78.06;98560.53;4823761;29;45487;-62
2022/06/24 08:14:17;;;;;;;;;14.00;13.00;;;;;22.07;78.55;98577.78;4825210;29;45528;-59
2022/06/24 08:16:45;;;;;;;;;6.00;4.50;;;;;22.04;78.72;98591.47;4824299;29;46150;-59
2022/06/24 08:19:10;;;;;;;;;9.40;9.40;;;;;21.98;77.59;98592.03;4824570;29;45328;-59
2022/06/24 08:21:36;;;;;;;;;11.25;11.25;;;;;21.88;77.70;98594.75;4813155;29;45476;-59
2022/06/24 08:24:02;;;;;;;;;13.75;10.50;;;;;21.79;78.97;98588.41;4822765;29;45444;-59
2022/06/24 08:26:27;;;;;;;;;11.25;10.75;;;;;21.69;80.06;98589.41;4822574;29;46334;-59
2022/06/24 08:28:54;;;;;;;;;9.50;9.00;;;;;21.51;79.79;98592.84;4823642;29;45402;-58
2022/06/24 08:31:19;;;;;;;;;8.00;8.00;;;;;21.30;82.28;98620.78;4824791;29;45528;-58
2022/06/24 08:33:45;;;;;;;;;9.00;9.00;;;;;21.10;85.54;98650.25;4823797;29;45511;-56
2022/06/24 08:36:10;;;;;;;;;11.25;10.50;;;;;20.92;85.66;98653.75;4807771;29;45443;-56
2022/06/24 08:38:36;;;;;;;;;10.00;9.75;;;;;20.75;89.05;98709.69;4806980;29;45395;-55
2022/06/24 08:41:02;;;;;;;;;6.75;5.50;;;;;20.58;83.47;98725.56;4819233;29;45456;-56
2022/06/24 08:43:33;;;;;;;;;2.00;2.00;;;;;20.21;79.87;98750.97;4819347;29;45466;-58
2022/06/24 08:46:01;;;;;;;;;2.80;2.00;;;;;19.76;85.34;98792.31;4823153;29;45411;-59
2022/06/24 08:48:28;;;;;;;;;0.20;0.20;;;;;19.07;85.85;98775.66;4801548;29;45578;-55
2022/06/24 08:50:54;;;;;;;;;2.00;1.40;;;;;18.54;89.20;98763.84;4815595;29;45434;-58
2022/06/24 08:53:22;;;;;;;;;2.00;2.00;;;;;18.18;89.38;98755.06;4819118;29;45435;-57
2022/06/24 08:55:50;;;;;;;;;2.00;0.20;;;;;17.85;88.56;98814.50;4820343;29;45636;-57
2022/06/24 08:58:16;;;;;;;;;0.00;0.00;;;;;17.52;88.98;98808.97;4818726;29;45597;-56
2022/06/24 09:00:42;;;;;;;;;0.00;0.00;;;;;17.31;88.12;98784.72;4820394;29;45566;-55
2022/06/24 09:03:08;;;;;;;;;0.00;0.00;;;;;17.13;90.34;98805.56;4820333;29;45642;-53
2022/06/24 09:05:34;;;;;;;;;0.00;0.00;;;;;17.00;90.63;98810.91;4818270;29;46076;-53
2022/06/24 09:08:16;;;;;;;;;0.00;0.00;;;;;16.92;91.71;98799.97;4816003;29;45527;-52
2022/06/24 09:10:44;;;;;;;;;0.60;0.00;;;;;16.88;89.88;98789.63;4817453;29;45431;-55
2022/06/24 09:13:20;;;;;;;;;0.80;0.00;;;;;16.86;89.90;98772.91;4820284;29;45611;-56
2022/06/24 09:15:53;;;;;;;;;0.00;0.00;;;;;16.85;89.29;98753.41;4803723;29;45685;-60
2022/06/24 09:18:23;;;;;;;;;0.00;0.00;;;;;16.83;89.27;98736.69;4816523;29;45642;-61
2022/06/24 09:20:50;;;;;;;;;0.00;0.00;;;;;16.82;90.62;98748.31;4778277;29;46341;-61
2022/06/24 09:23:15;;;;;;;;;0.00;0.00;;;;;16.80;91.52;98783.97;4818168;29;45426;-61
2022/06/24 09:25:47;;;;;;;;;0.75;0.00;;;;;16.77;93.46;98803.69;4817261;29;45480;-62
2022/06/24 09:28:32;;;;;;;;;0.00;0.00;;;;;16.74;95.15;98817.25;4818582;29;45348;-61
2022/06/24 09:31:08;;;;;;;;;2.25;2.25;;;;;16.71;98.22;98830.75;4818017;29;45595;-62
2022/06/24 09:33:39;;;;;;;;;2.75;2.50;;;;;16.76;100.00;98851.75;4801356;29;45325;-62
2022/06/24 09:36:06;;;;;;;;;3.75;3.75;;;;;16.84;100.00;98849.38;4802411;29;46861;-62
2022/06/24 09:38:32;;;;;;;;;2.00;2.00;;;;;16.92;100.00;98836.41;4816657;29;45367;-62
2022/06/24 09:41:04;;;;;;;;;1.50;1.00;;;;;17.00;99.79;98831.38;4818401;29;45685;-63
2022/06/24 09:43:31;;;;;;;;;1.25;1.25;;;;;17.03;99.00;98866.63;4817996;29;46829;-62
2022/06/24 09:45:57;;;;;;;;;3.00;2.00;;;;;17.06;99.91;98879.72;4817808;29;45467;-54
2022/06/24 09:48:29;;;;;;;;;2.00;2.00;;;;;17.09;98.90;98884.81;4817879;29;45478;-54
2022/06/24 09:50:57;;;;;;;;;5.00;2.00;;;;;17.08;98.16;98884.97;4801948;29;45510;-61
2022/06/24 09:53:25;;;;;;;;;0.00;0.00;;;;;17.14;98.05;98928.94;4817768;29;45698;-61
2022/06/24 09:55:51;;;;;;;;;1.00;1.00;;;;;17.17;97.15;98923.41;4816714;29;46449;-54
2022/06/24 09:58:17;;;;;;;;;1.00;1.00;;;;;17.18;97.49;98931.28;4816090;29;45553;-54
2022/06/24 10:00:45;;;;;;;;;1.00;1.00;;;;;17.18;99.24;98935.75;4817055;29;45461;-51
2022/06/24 10:03:12;;;;;;;;;2.00;2.00;;;;;17.20;98.62;98940.03;4817758;29;45428;-52
2022/06/24 10:05:41;;;;;;;;;1.75;1.75;;;;;17.26;99.93;98933.44;4818659;29;45454;-59
2022/06/24 10:08:10;;;;;;;;;4.20;3.20;;;;;17.31;99.89;98933.94;4818038;29;45666;-59
2022/06/24 10:10:36;;;;;;;;;2.60;2.60;;;;;17.39;100.00;98932.44;4818472;29;45465;-60
2022/06/24 10:13:10;;;;;;;;;3.00;3.00;;;;;17.51;100.00;98925.38;4817382;29;45504;-60
2022/06/24 10:15:35;;;;;;;;;4.00;4.00;;;;;17.67;100.00;98919.84;4818369;29;46857;-61
2022/06/24 10:18:09;;;;;;;;;2.75;2.75;;;;;17.88;100.00;98912.94;4817732;29;45440;-60
2022/06/24 10:20:35;;;;;;;;;3.00;3.00;;;;;18.16;100.00;98924.25;4809158;29;45719;-60
2022/06/24 10:23:01;;;;;;;;;2.75;2.75;;;;;18.41;100.00;98922.31;4818541;29;45613;-61
2022/06/24 10:26:21;;;;;;;;;2.00;2.00;;;;;18.67;100.00;98935.53;4818697;29;46333;-60
2022/06/24 10:29:04;;;;;;;;;1.40;1.00;;;;;18.80;96.53;98934.47;4761348;29;45486;-60
2022/06/24 10:31:41;;;;;;;;;1.00;1.00;;;;;18.81;95.01;98933.50;4819089;29;45383;-60
2022/06/24 10:34:07;;;;;;;;;2.00;0.20;;;;;18.79;93.65;98940.78;4819204;29;45382;-60
2022/06/24 10:36:32;;;;;;;;;0.50;0.00;;;;;18.77;92.53;98941.84;4818004;29;45552;-57
2022/06/24 10:39:16;;;;;;;;;2.00;1.00;;;;;18.76;93.35;98942.84;4817371;29;45502;-56
2022/06/24 10:41:42;;;;;;;;;1.00;1.00;;;;;18.73;92.72;98935.91;4818564;29;45506;-56
2022/06/24 10:44:29;;;;;;;;;3.25;2.25;;;;;18.69;93.60;98938.94;4819018;29;45590;-61
2022/06/24 10:47:12;;;;;;;;;2.25;2.25;;;;;18.65;92.77;98940.97;4817865;29;46636;-60
2022/06/24 10:49:50;;;;;;;;;1.80;1.80;;;;;18.61;93.00;98944.84;4798272;29;45441;-60
2022/06/24 10:52:34;;;;;;;;;3.00;3.00;;;;;18.61;95.00;98960.00;4816896;29;46340;-60
2022/06/24 10:55:15;;;;;;;;;6.00;4.50;;;;;18.68;96.45;98969.28;4822097;29;45479;-60
2022/06/24 10:57:40;;;;;;;;;3.00;3.00;;;;;18.76;95.72;98972.22;4819064;29;46568;-55
2022/06/24 11:00:17;;;;;;;;;10.75;10.75;;;;;18.85;97.47;98981.34;4822221;29;45484;-56
2022/06/24 11:02:45;;;;;;;;;7.25;7.25;;;;;18.95;96.56;98979.66;4821933;29;46264;-56
2022/06/24 11:05:21;;;;;;;;;3.25;3.25;;;;;19.01;95.46;98989.91;4822619;29;45604;-56
2022/06/24 11:07:51;;;;;;;;;3.00;3.00;;;;;19.02;94.79;98983.59;4821669;29;45532;-58
2022/06/24 11:10:20;;;;;;;;;2.20;1.80;;;;;19.05;93.66;99004.72;4820109;29;45489;-57
2022/06/24 11:12:56;;;;;;;;;3.00;3.00;;;;;19.05;93.44;99015.41;4821354;29;45522;-57
2022/06/24 11:15:46;;;;;;;;;7.00;7.00;;;;;19.07;93.96;99019.69;4821887;29;45613;-58
2022/06/24 11:18:17;;;;;;;;;2.20;2.20;;;;;19.10;93.96;99018.59;4821681;29;46273;-58
2022/06/24 11:20:59;;;;;;;;;4.00;2.60;;;;;19.15;94.69;99027.94;4812565;29;45684;-58
2022/06/24 11:23:28;;;;;;;;;6.25;3.50;;;;;19.21;94.90;99023.09;4821290;29;45652;-58
2022/06/24 11:25:57;;;;;;;;;2.25;2.25;;;;;19.23;95.30;99023.84;4821824;29;45468;-58
2022/06/24 11:28:36;;;;;;;;;3.00;3.00;;;;;19.25;95.62;99032.59;4821499;29;46414;-58
2022/06/24 11:31:27;;;;;;;;;2.60;2.60;;;;;19.33;95.33;99032.84;4821213;29;45376;-58
2022/06/24 11:34:05;;;;;;;;;3.50;3.50;;;;;19.40;94.07;99004.69;4820576;29;45578;-58
2022/06/24 11:36:34;;;;;;;;;3.50;3.50;;;;;19.42;94.93;98984.88;4821586;29;45573;-58
2022/06/24 11:39:02;;;;;;;;;3.20;3.00;;;;;19.44;95.24;98985.56;4821494;29;46315;-57